sensor_id;sensor_type;location;lat;lon;timestamp;P1;durP1;ratioP1;P2;durP2;ratioP2
17207;SDS011;8720;48.488;9.202;2023-05-19T00:02:18;4.87;;;3.30;;
17207;SDS011;8720;48.488;9.202;2023-05-19T00:04:48;4.97;;;2.63;;
17207;SDS011;8720;48.488;9.202;2023-05-19T00:07:16;6.07;;;3.83;;
17207;SDS011;8720;48.488;9.202;2023-05-19T00:09:44;5.37;;;2.73;;
17207;SDS011;8720;48.488;9.202;2023-05-19T00:12:13;3.90;;;2.77;;
17207;SDS011;8720;48.488;9.202;2023-05-19T00:14:41;4.73;;;2.50;;
17207;SDS011;8720;48.488;9.202;2023-05-19T00:17:09;6.07;;;2.90;;
17207;SDS011;8720;48.488;9.202;2023-05-19T00:19:38;5.13;;;2.60;;
17207;SDS011;8720;48.488;9.202;2023-05-19T00:22:05;3.17;;;2.57;;
17207;SDS011;8720;48.488;9.202;2023-05-19T00:24:33;5.50;;;3.93;;
17207;SDS011;8720;48.488;9.202;2023-05-19T00:27:00;3.90;;;2.63;;
17207;SDS011;8720;48.488;9.202;2023-05-19T00:29:27;3.47;;;2.47;;
17207;SDS011;8720;48.488;9.202;2023-05-19T00:31:55;3.03;;;2.23;;
17207;SDS011;8720;48.488;9.202;2023-05-19T00:34:23;4.00;;;2.70;;
17207;SDS011;8720;48.488;9.202;2023-05-19T00:36:51;3.17;;;2.53;;
17207;SDS011;8720;48.488;9.202;2023-05-19T00:39:18;4.67;;;3.37;;
17207;SDS011;8720;48.488;9.202;2023-05-19T00:41:46;3.13;;;2.53;;
17207;SDS011;8720;48.488;9.202;2023-05-19T00:44:13;4.90;;;3.10;;
17207;SDS011;8720;48.488;9.202;2023-05-19T00:46:40;4.33;;;2.90;;
17207;SDS011;8720;48.488;9.202;2023-05-19T00:49:08;2.63;;;2.30;;
17207;SDS011;8720;48.488;9.202;2023-05-19T00:51:35;8.87;;;2.90;;
17207;SDS011;8720;48.488;9.202;2023-05-19T00:54:04;8.20;;;3.20;;
17207;SDS011;8720;48.488;9.202;2023-05-19T00:56:31;3.90;;;3.00;;
17207;SDS011;8720;48.488;9.202;2023-05-19T00:58:59;3.27;;;2.97;;
17207;SDS011;8720;48.488;9.202;2023-05-19T01:01:26;5.47;;;2.60;;
17207;SDS011;8720;48.488;9.202;2023-05-19T01:03:56;3.10;;;2.50;;
17207;SDS011;8720;48.488;9.202;2023-05-19T01:06:24;3.13;;;2.60;;
17207;SDS011;8720;48.488;9.202;2023-05-19T01:08:52;5.60;;;3.43;;
17207;SDS011;8720;48.488;9.202;2023-05-19T01:11:22;5.40;;;2.83;;
17207;SDS011;8720;48.488;9.202;2023-05-19T01:13:50;7.17;;;3.33;;
17207;SDS011;8720;48.488;9.202;2023-05-19T01:16:19;2.70;;;2.10;;
17207;SDS011;8720;48.488;9.202;2023-05-19T01:18:58;3.90;;;2.87;;
17207;SDS011;8720;48.488;9.202;2023-05-19T01:28:07;5.07;;;2.70;;
17207;SDS011;8720;48.488;9.202;2023-05-19T01:31:06;4.10;;;2.87;;
17207;SDS011;8720;48.488;9.202;2023-05-19T01:33:37;6.10;;;2.60;;
17207;SDS011;8720;48.488;9.202;2023-05-19T01:36:08;4.17;;;2.87;;
17207;SDS011;8720;48.488;9.202;2023-05-19T01:38:38;3.43;;;2.13;;
17207;SDS011;8720;48.488;9.202;2023-05-19T01:41:09;3.03;;;2.23;;
17207;SDS011;8720;48.488;9.202;2023-05-19T01:43:38;4.60;;;2.90;;
17207;SDS011;8720;48.488;9.202;2023-05-19T01:46:07;3.40;;;2.73;;
17207;SDS011;8720;48.488;9.202;2023-05-19T01:48:35;3.43;;;2.50;;
17207;SDS011;8720;48.488;9.202;2023-05-19T01:51:03;3.70;;;2.67;;
17207;SDS011;8720;48.488;9.202;2023-05-19T01:53:31;4.70;;;2.73;;
17207;SDS011;8720;48.488;9.202;2023-05-19T01:55:58;4.00;;;2.70;;
17207;SDS011;8720;48.488;9.202;2023-05-19T01:58:30;3.80;;;2.30;;
17207;SDS011;8720;48.488;9.202;2023-05-19T02:04:04;2.80;;;2.07;;
17207;SDS011;8720;48.488;9.202;2023-05-19T02:06:49;2.53;;;2.27;;
17207;SDS011;8720;48.488;9.202;2023-05-19T02:09:31;3.40;;;3.10;;
17207;SDS011;8720;48.488;9.202;2023-05-19T02:12:08;3.10;;;2.50;;
17207;SDS011;8720;48.488;9.202;2023-05-19T02:14:52;2.90;;;2.60;;
17207;SDS011;8720;48.488;9.202;2023-05-19T02:17:29;4.37;;;3.00;;
17207;SDS011;8720;48.488;9.202;2023-05-19T02:20:02;4.63;;;3.67;;
17207;SDS011;8720;48.488;9.202;2023-05-19T02:22:33;4.00;;;2.90;;
17207;SDS011;8720;48.488;9.202;2023-05-19T02:25:00;3.07;;;2.70;;
17207;SDS011;8720;48.488;9.202;2023-05-19T02:27:31;2.80;;;2.27;;
17207;SDS011;8720;48.488;9.202;2023-05-19T02:30:00;3.77;;;3.03;;
17207;SDS011;8720;48.488;9.202;2023-05-19T02:32:30;3.30;;;2.80;;
17207;SDS011;8720;48.488;9.202;2023-05-19T02:34:57;3.50;;;2.30;;
17207;SDS011;8720;48.488;9.202;2023-05-19T02:37:26;4.30;;;2.50;;
17207;SDS011;8720;48.488;9.202;2023-05-19T02:39:53;2.93;;;2.73;;
17207;SDS011;8720;48.488;9.202;2023-05-19T02:42:21;3.50;;;3.10;;
17207;SDS011;8720;48.488;9.202;2023-05-19T02:44:48;2.97;;;2.57;;
17207;SDS011;8720;48.488;9.202;2023-05-19T02:47:16;3.03;;;2.70;;
17207;SDS011;8720;48.488;9.202;2023-05-19T02:49:43;3.40;;;3.00;;
17207;SDS011;8720;48.488;9.202;2023-05-19T02:52:11;4.73;;;3.30;;
17207;SDS011;8720;48.488;9.202;2023-05-19T02:54:40;4.83;;;2.87;;
17207;SDS011;8720;48.488;9.202;2023-05-19T02:57:07;4.10;;;3.10;;
17207;SDS011;8720;48.488;9.202;2023-05-19T02:59:35;4.10;;;2.60;;
17207;SDS011;8720;48.488;9.202;2023-05-19T03:02:02;6.00;;;3.43;;
17207;SDS011;8720;48.488;9.202;2023-05-19T03:04:30;4.10;;;2.97;;
17207;SDS011;8720;48.488;9.202;2023-05-19T03:06:57;5.63;;;3.00;;
17207;SDS011;8720;48.488;9.202;2023-05-19T03:09:26;4.20;;;3.30;;
17207;SDS011;8720;48.488;9.202;2023-05-19T03:11:55;4.63;;;3.13;;
17207;SDS011;8720;48.488;9.202;2023-05-19T03:14:28;4.77;;;2.73;;
17207;SDS011;8720;48.488;9.202;2023-05-19T03:16:56;7.10;;;3.70;;
17207;SDS011;8720;48.488;9.202;2023-05-19T03:19:24;4.13;;;3.00;;
17207;SDS011;8720;48.488;9.202;2023-05-19T03:21:51;4.57;;;3.13;;
17207;SDS011;8720;48.488;9.202;2023-05-19T03:24:20;4.20;;;2.67;;
17207;SDS011;8720;48.488;9.202;2023-05-19T03:26:48;4.07;;;2.93;;
17207;SDS011;8720;48.488;9.202;2023-05-19T03:29:18;2.80;;;2.50;;
17207;SDS011;8720;48.488;9.202;2023-05-19T03:31:45;3.53;;;3.00;;
17207;SDS011;8720;48.488;9.202;2023-05-19T03:34:15;3.30;;;2.50;;
17207;SDS011;8720;48.488;9.202;2023-05-19T03:36:42;3.30;;;2.97;;
17207;SDS011;8720;48.488;9.202;2023-05-19T03:39:13;3.90;;;3.00;;
17207;SDS011;8720;48.488;9.202;2023-05-19T03:41:42;4.07;;;2.90;;
17207;SDS011;8720;48.488;9.202;2023-05-19T03:44:09;4.13;;;2.50;;
17207;SDS011;8720;48.488;9.202;2023-05-19T03:46:38;3.60;;;3.07;;
17207;SDS011;8720;48.488;9.202;2023-05-19T03:49:24;3.83;;;2.70;;
17207;SDS011;8720;48.488;9.202;2023-05-19T03:52:23;4.20;;;3.50;;
17207;SDS011;8720;48.488;9.202;2023-05-19T03:54:56;7.10;;;3.50;;
17207;SDS011;8720;48.488;9.202;2023-05-19T03:57:23;4.23;;;3.10;;
17207;SDS011;8720;48.488;9.202;2023-05-19T03:59:52;4.07;;;3.20;;
17207;SDS011;8720;48.488;9.202;2023-05-19T04:02:21;3.70;;;2.93;;
17207;SDS011;8720;48.488;9.202;2023-05-19T04:04:48;4.60;;;2.77;;
17207;SDS011;8720;48.488;9.202;2023-05-19T04:07:16;3.90;;;3.37;;
17207;SDS011;8720;48.488;9.202;2023-05-19T04:09:43;6.83;;;3.40;;
17207;SDS011;8720;48.488;9.202;2023-05-19T04:12:10;3.23;;;2.90;;
17207;SDS011;8720;48.488;9.202;2023-05-19T04:14:38;5.97;;;3.90;;
17207;SDS011;8720;48.488;9.202;2023-05-19T04:17:05;4.27;;;3.07;;
17207;SDS011;8720;48.488;9.202;2023-05-19T04:19:34;5.40;;;3.03;;
17207;SDS011;8720;48.488;9.202;2023-05-19T04:22:01;5.60;;;3.63;;
17207;SDS011;8720;48.488;9.202;2023-05-19T04:24:29;4.13;;;3.00;;
17207;SDS011;8720;48.488;9.202;2023-05-19T04:26:57;5.63;;;3.57;;
17207;SDS011;8720;48.488;9.202;2023-05-19T04:29:27;5.57;;;3.70;;
17207;SDS011;8720;48.488;9.202;2023-05-19T04:31:54;7.33;;;3.53;;
17207;SDS011;8720;48.488;9.202;2023-05-19T04:34:22;5.03;;;3.77;;
17207;SDS011;8720;48.488;9.202;2023-05-19T04:36:51;5.23;;;3.10;;
17207;SDS011;8720;48.488;9.202;2023-05-19T04:39:20;4.87;;;3.20;;
17207;SDS011;8720;48.488;9.202;2023-05-19T04:41:49;4.47;;;3.20;;
17207;SDS011;8720;48.488;9.202;2023-05-19T04:44:18;4.90;;;3.57;;
17207;SDS011;8720;48.488;9.202;2023-05-19T04:46:48;6.20;;;3.57;;
17207;SDS011;8720;48.488;9.202;2023-05-19T04:49:19;5.03;;;3.77;;
17207;SDS011;8720;48.488;9.202;2023-05-19T04:51:48;5.97;;;3.83;;
17207;SDS011;8720;48.488;9.202;2023-05-19T04:54:21;5.17;;;3.40;;
17207;SDS011;8720;48.488;9.202;2023-05-19T04:56:49;5.90;;;3.67;;
17207;SDS011;8720;48.488;9.202;2023-05-19T04:59:17;4.60;;;3.60;;
17207;SDS011;8720;48.488;9.202;2023-05-19T05:01:44;4.80;;;3.03;;
17207;SDS011;8720;48.488;9.202;2023-05-19T05:04:12;5.50;;;4.10;;
17207;SDS011;8720;48.488;9.202;2023-05-19T05:06:40;7.43;;;3.73;;
17207;SDS011;8720;48.488;9.202;2023-05-19T05:09:13;4.23;;;3.50;;
17207;SDS011;8720;48.488;9.202;2023-05-19T05:11:42;5.30;;;3.70;;
17207;SDS011;8720;48.488;9.202;2023-05-19T05:14:10;10.10;;;3.73;;
17207;SDS011;8720;48.488;9.202;2023-05-19T05:16:39;9.87;;;4.13;;
17207;SDS011;8720;48.488;9.202;2023-05-19T05:19:11;4.30;;;3.20;;
17207;SDS011;8720;48.488;9.202;2023-05-19T05:21:40;7.00;;;3.20;;
17207;SDS011;8720;48.488;9.202;2023-05-19T05:24:08;6.33;;;3.53;;
17207;SDS011;8720;48.488;9.202;2023-05-19T05:26:41;4.83;;;2.90;;
17207;SDS011;8720;48.488;9.202;2023-05-19T05:29:09;5.43;;;3.53;;
17207;SDS011;8720;48.488;9.202;2023-05-19T05:31:36;5.70;;;4.27;;
17207;SDS011;8720;48.488;9.202;2023-05-19T05:34:04;6.07;;;3.70;;
17207;SDS011;8720;48.488;9.202;2023-05-19T05:36:32;4.43;;;3.43;;
17207;SDS011;8720;48.488;9.202;2023-05-19T05:39:00;4.70;;;3.70;;
17207;SDS011;8720;48.488;9.202;2023-05-19T05:41:28;6.90;;;3.70;;
17207;SDS011;8720;48.488;9.202;2023-05-19T05:44:02;3.80;;;3.47;;
17207;SDS011;8720;48.488;9.202;2023-05-19T05:46:30;7.67;;;4.17;;
17207;SDS011;8720;48.488;9.202;2023-05-19T05:48:58;5.73;;;4.23;;
17207;SDS011;8720;48.488;9.202;2023-05-19T05:51:26;5.70;;;4.43;;
17207;SDS011;8720;48.488;9.202;2023-05-19T05:53:54;5.63;;;3.73;;
17207;SDS011;8720;48.488;9.202;2023-05-19T05:56:30;5.07;;;4.00;;
17207;SDS011;8720;48.488;9.202;2023-05-19T05:58:59;5.93;;;3.90;;
17207;SDS011;8720;48.488;9.202;2023-05-19T06:01:30;7.90;;;4.00;;
17207;SDS011;8720;48.488;9.202;2023-05-19T06:03:57;4.63;;;3.40;;
17207;SDS011;8720;48.488;9.202;2023-05-19T06:06:25;7.67;;;3.73;;
17207;SDS011;8720;48.488;9.202;2023-05-19T06:08:53;3.37;;;3.07;;
17207;SDS011;8720;48.488;9.202;2023-05-19T06:11:22;5.13;;;3.30;;
17207;SDS011;8720;48.488;9.202;2023-05-19T06:13:50;8.57;;;4.13;;
17207;SDS011;8720;48.488;9.202;2023-05-19T06:16:38;6.17;;;3.63;;
17207;SDS011;8720;48.488;9.202;2023-05-19T06:19:06;5.80;;;3.40;;
17207;SDS011;8720;48.488;9.202;2023-05-19T06:21:34;10.47;;;4.40;;
17207;SDS011;8720;48.488;9.202;2023-05-19T06:24:01;5.40;;;3.40;;
17207;SDS011;8720;48.488;9.202;2023-05-19T06:26:28;4.30;;;3.30;;
17207;SDS011;8720;48.488;9.202;2023-05-19T06:28:55;4.70;;;3.30;;
17207;SDS011;8720;48.488;9.202;2023-05-19T06:31:23;5.23;;;3.37;;
17207;SDS011;8720;48.488;9.202;2023-05-19T06:33:55;6.20;;;3.87;;
17207;SDS011;8720;48.488;9.202;2023-05-19T06:36:23;5.07;;;2.87;;
17207;SDS011;8720;48.488;9.202;2023-05-19T06:38:53;5.73;;;3.50;;
17207;SDS011;8720;48.488;9.202;2023-05-19T06:41:24;7.57;;;3.43;;
17207;SDS011;8720;48.488;9.202;2023-05-19T06:43:51;5.17;;;2.97;;
17207;SDS011;8720;48.488;9.202;2023-05-19T06:46:20;5.03;;;2.90;;
17207;SDS011;8720;48.488;9.202;2023-05-19T06:48:48;4.77;;;3.63;;
17207;SDS011;8720;48.488;9.202;2023-05-19T06:51:19;8.23;;;4.77;;
17207;SDS011;8720;48.488;9.202;2023-05-19T06:53:51;7.13;;;3.50;;
17207;SDS011;8720;48.488;9.202;2023-05-19T06:56:20;5.40;;;3.47;;
17207;SDS011;8720;48.488;9.202;2023-05-19T06:58:48;3.37;;;2.73;;
17207;SDS011;8720;48.488;9.202;2023-05-19T07:01:17;8.20;;;3.30;;
17207;SDS011;8720;48.488;9.202;2023-05-19T07:03:49;5.03;;;3.47;;
17207;SDS011;8720;48.488;9.202;2023-05-19T07:06:17;5.47;;;3.40;;
17207;SDS011;8720;48.488;9.202;2023-05-19T07:08:46;6.07;;;3.43;;
17207;SDS011;8720;48.488;9.202;2023-05-19T07:11:13;5.63;;;3.57;;
17207;SDS011;8720;48.488;9.202;2023-05-19T07:13:41;8.07;;;3.50;;
17207;SDS011;8720;48.488;9.202;2023-05-19T07:16:10;4.40;;;3.30;;
17207;SDS011;8720;48.488;9.202;2023-05-19T07:18:37;4.53;;;3.00;;
17207;SDS011;8720;48.488;9.202;2023-05-19T07:21:04;5.50;;;3.17;;
17207;SDS011;8720;48.488;9.202;2023-05-19T07:23:32;4.50;;;3.13;;
17207;SDS011;8720;48.488;9.202;2023-05-19T07:26:01;5.83;;;3.73;;
17207;SDS011;8720;48.488;9.202;2023-05-19T07:28:28;5.70;;;3.00;;
17207;SDS011;8720;48.488;9.202;2023-05-19T07:30:55;4.93;;;3.70;;
17207;SDS011;8720;48.488;9.202;2023-05-19T07:33:22;7.73;;;3.60;;
17207;SDS011;8720;48.488;9.202;2023-05-19T07:35:51;7.60;;;3.23;;
17207;SDS011;8720;48.488;9.202;2023-05-19T07:38:18;6.60;;;2.90;;
17207;SDS011;8720;48.488;9.202;2023-05-19T07:40:45;6.77;;;3.47;;
17207;SDS011;8720;48.488;9.202;2023-05-19T07:43:14;6.30;;;3.37;;
17207;SDS011;8720;48.488;9.202;2023-05-19T07:45:41;7.67;;;3.20;;
17207;SDS011;8720;48.488;9.202;2023-05-19T07:48:08;8.30;;;4.17;;
17207;SDS011;8720;48.488;9.202;2023-05-19T07:50:36;4.43;;;3.53;;
17207;SDS011;8720;48.488;9.202;2023-05-19T07:53:03;7.17;;;3.50;;
17207;SDS011;8720;48.488;9.202;2023-05-19T07:55:30;5.60;;;3.50;;
17207;SDS011;8720;48.488;9.202;2023-05-19T07:57:57;6.27;;;4.13;;
17207;SDS011;8720;48.488;9.202;2023-05-19T08:00:26;4.80;;;3.47;;
17207;SDS011;8720;48.488;9.202;2023-05-19T08:02:54;6.17;;;4.00;;
17207;SDS011;8720;48.488;9.202;2023-05-19T08:05:22;5.53;;;3.93;;
17207;SDS011;8720;48.488;9.202;2023-05-19T08:07:50;4.43;;;3.03;;
17207;SDS011;8720;48.488;9.202;2023-05-19T08:10:17;4.00;;;3.60;;
17207;SDS011;8720;48.488;9.202;2023-05-19T08:12:44;5.10;;;3.33;;
17207;SDS011;8720;48.488;9.202;2023-05-19T08:15:12;5.67;;;3.80;;
17207;SDS011;8720;48.488;9.202;2023-05-19T08:17:42;5.90;;;3.70;;
17207;SDS011;8720;48.488;9.202;2023-05-19T08:20:09;4.80;;;3.33;;
17207;SDS011;8720;48.488;9.202;2023-05-19T08:22:37;4.80;;;3.20;;
17207;SDS011;8720;48.488;9.202;2023-05-19T08:25:04;6.07;;;3.80;;
17207;SDS011;8720;48.488;9.202;2023-05-19T08:27:32;7.00;;;4.03;;
17207;SDS011;8720;48.488;9.202;2023-05-19T08:29:59;4.80;;;3.57;;
17207;SDS011;8720;48.488;9.202;2023-05-19T08:32:27;5.33;;;3.33;;
17207;SDS011;8720;48.488;9.202;2023-05-19T08:34:55;5.60;;;4.17;;
17207;SDS011;8720;48.488;9.202;2023-05-19T08:37:23;9.07;;;3.90;;
17207;SDS011;8720;48.488;9.202;2023-05-19T08:39:50;5.50;;;4.00;;
17207;SDS011;8720;48.488;9.202;2023-05-19T08:42:17;6.00;;;4.40;;
17207;SDS011;8720;48.488;9.202;2023-05-19T08:44:45;7.60;;;4.07;;
17207;SDS011;8720;48.488;9.202;2023-05-19T08:47:12;6.57;;;3.97;;
17207;SDS011;8720;48.488;9.202;2023-05-19T08:49:42;7.07;;;3.83;;
17207;SDS011;8720;48.488;9.202;2023-05-19T08:52:18;7.87;;;4.03;;
17207;SDS011;8720;48.488;9.202;2023-05-19T08:54:57;5.07;;;3.23;;
17207;SDS011;8720;48.488;9.202;2023-05-19T08:57:30;4.60;;;3.60;;
17207;SDS011;8720;48.488;9.202;2023-05-19T08:59:58;5.23;;;3.83;;
17207;SDS011;8720;48.488;9.202;2023-05-19T09:02:29;4.53;;;3.60;;
17207;SDS011;8720;48.488;9.202;2023-05-19T09:04:58;4.63;;;3.30;;
17207;SDS011;8720;48.488;9.202;2023-05-19T09:07:27;5.77;;;3.90;;
17207;SDS011;8720;48.488;9.202;2023-05-19T09:09:58;6.47;;;3.77;;
17207;SDS011;8720;48.488;9.202;2023-05-19T09:12:26;3.60;;;3.23;;
17207;SDS011;8720;48.488;9.202;2023-05-19T09:14:53;5.70;;;4.40;;
17207;SDS011;8720;48.488;9.202;2023-05-19T09:17:22;8.07;;;3.97;;
17207;SDS011;8720;48.488;9.202;2023-05-19T09:19:49;5.10;;;3.93;;
17207;SDS011;8720;48.488;9.202;2023-05-19T09:22:17;6.53;;;3.73;;
17207;SDS011;8720;48.488;9.202;2023-05-19T09:24:46;6.00;;;3.70;;
17207;SDS011;8720;48.488;9.202;2023-05-19T09:27:17;4.20;;;3.57;;
17207;SDS011;8720;48.488;9.202;2023-05-19T09:29:49;5.97;;;3.77;;
17207;SDS011;8720;48.488;9.202;2023-05-19T09:32:22;7.20;;;4.50;;
17207;SDS011;8720;48.488;9.202;2023-05-19T09:34:51;4.90;;;4.00;;
17207;SDS011;8720;48.488;9.202;2023-05-19T09:37:21;4.77;;;3.77;;
17207;SDS011;8720;48.488;9.202;2023-05-19T09:39:53;6.00;;;3.30;;
17207;SDS011;8720;48.488;9.202;2023-05-19T09:42:23;9.60;;;3.77;;
17207;SDS011;8720;48.488;9.202;2023-05-19T09:44:57;7.77;;;3.60;;
17207;SDS011;8720;48.488;9.202;2023-05-19T09:47:27;5.50;;;4.03;;
17207;SDS011;8720;48.488;9.202;2023-05-19T09:49:59;10.60;;;3.80;;
17207;SDS011;8720;48.488;9.202;2023-05-19T09:52:26;4.10;;;3.57;;
17207;SDS011;8720;48.488;9.202;2023-05-19T09:54:55;9.93;;;4.47;;
17207;SDS011;8720;48.488;9.202;2023-05-19T09:57:24;3.90;;;3.20;;
17207;SDS011;8720;48.488;9.202;2023-05-19T09:59:53;6.37;;;3.40;;
17207;SDS011;8720;48.488;9.202;2023-05-19T10:02:22;5.80;;;3.73;;
17207;SDS011;8720;48.488;9.202;2023-05-19T10:04:51;5.83;;;4.10;;
17207;SDS011;8720;48.488;9.202;2023-05-19T10:07:20;6.07;;;4.00;;
17207;SDS011;8720;48.488;9.202;2023-05-19T10:09:49;4.23;;;3.33;;
17207;SDS011;8720;48.488;9.202;2023-05-19T10:12:21;5.27;;;3.57;;
17207;SDS011;8720;48.488;9.202;2023-05-19T10:14:51;7.90;;;3.83;;
17207;SDS011;8720;48.488;9.202;2023-05-19T10:17:21;4.97;;;3.80;;
17207;SDS011;8720;48.488;9.202;2023-05-19T10:19:50;5.03;;;3.90;;
17207;SDS011;8720;48.488;9.202;2023-05-19T10:22:20;6.10;;;3.87;;
17207;SDS011;8720;48.488;9.202;2023-05-19T10:24:47;6.40;;;4.27;;
17207;SDS011;8720;48.488;9.202;2023-05-19T10:27:14;6.07;;;3.90;;
17207;SDS011;8720;48.488;9.202;2023-05-19T10:29:46;5.73;;;4.77;;
17207;SDS011;8720;48.488;9.202;2023-05-19T10:32:20;7.30;;;3.60;;
17207;SDS011;8720;48.488;9.202;2023-05-19T10:34:57;6.63;;;3.63;;
17207;SDS011;8720;48.488;9.202;2023-05-19T10:38:11;5.37;;;3.50;;
17207;SDS011;8720;48.488;9.202;2023-05-19T10:40:59;3.67;;;3.27;;
17207;SDS011;8720;48.488;9.202;2023-05-19T10:43:43;6.20;;;4.10;;
17207;SDS011;8720;48.488;9.202;2023-05-19T10:46:23;7.57;;;3.93;;
17207;SDS011;8720;48.488;9.202;2023-05-19T10:48:52;11.93;;;4.30;;
17207;SDS011;8720;48.488;9.202;2023-05-19T10:51:20;4.97;;;3.60;;
17207;SDS011;8720;48.488;9.202;2023-05-19T10:53:54;7.50;;;3.80;;
17207;SDS011;8720;48.488;9.202;2023-05-19T10:56:26;5.00;;;3.83;;
17207;SDS011;8720;48.488;9.202;2023-05-19T10:58:58;5.17;;;4.00;;
17207;SDS011;8720;48.488;9.202;2023-05-19T11:01:31;5.73;;;3.60;;
17207;SDS011;8720;48.488;9.202;2023-05-19T11:04:05;4.70;;;3.70;;
17207;SDS011;8720;48.488;9.202;2023-05-19T11:06:36;5.13;;;3.63;;
17207;SDS011;8720;48.488;9.202;2023-05-19T11:09:14;8.07;;;4.50;;
17207;SDS011;8720;48.488;9.202;2023-05-19T11:11:45;6.53;;;3.87;;
17207;SDS011;8720;48.488;9.202;2023-05-19T11:14:14;4.80;;;3.60;;
17207;SDS011;8720;48.488;9.202;2023-05-19T11:16:46;6.00;;;3.70;;
17207;SDS011;8720;48.488;9.202;2023-05-19T11:19:16;7.20;;;4.00;;
17207;SDS011;8720;48.488;9.202;2023-05-19T11:21:50;5.30;;;3.90;;
17207;SDS011;8720;48.488;9.202;2023-05-19T11:24:32;4.93;;;3.73;;
17207;SDS011;8720;48.488;9.202;2023-05-19T11:27:17;5.07;;;3.63;;
17207;SDS011;8720;48.488;9.202;2023-05-19T11:29:47;6.03;;;3.57;;
17207;SDS011;8720;48.488;9.202;2023-05-19T11:32:16;4.43;;;3.13;;
17207;SDS011;8720;48.488;9.202;2023-05-19T11:34:46;5.27;;;4.07;;
17207;SDS011;8720;48.488;9.202;2023-05-19T11:37:14;4.80;;;3.87;;
17207;SDS011;8720;48.488;9.202;2023-05-19T11:39:42;7.03;;;3.40;;
17207;SDS011;8720;48.488;9.202;2023-05-19T11:42:12;6.63;;;3.70;;
17207;SDS011;8720;48.488;9.202;2023-05-19T11:44:39;5.13;;;3.97;;
17207;SDS011;8720;48.488;9.202;2023-05-19T11:47:07;8.80;;;3.73;;
17207;SDS011;8720;48.488;9.202;2023-05-19T11:49:36;5.93;;;3.73;;
17207;SDS011;8720;48.488;9.202;2023-05-19T11:52:03;4.10;;;3.70;;
17207;SDS011;8720;48.488;9.202;2023-05-19T11:54:31;4.53;;;3.33;;
17207;SDS011;8720;48.488;9.202;2023-05-19T11:57:01;4.00;;;3.60;;
17207;SDS011;8720;48.488;9.202;2023-05-19T11:59:30;4.60;;;3.30;;
17207;SDS011;8720;48.488;9.202;2023-05-19T12:02:01;6.13;;;3.50;;
17207;SDS011;8720;48.488;9.202;2023-05-19T12:04:43;7.80;;;3.57;;
17207;SDS011;8720;48.488;9.202;2023-05-19T12:07:11;6.40;;;3.80;;
17207;SDS011;8720;48.488;9.202;2023-05-19T12:09:41;5.07;;;3.83;;
17207;SDS011;8720;48.488;9.202;2023-05-19T12:12:11;4.30;;;3.87;;
17207;SDS011;8720;48.488;9.202;2023-05-19T12:14:41;5.93;;;3.23;;
17207;SDS011;8720;48.488;9.202;2023-05-19T12:17:09;3.50;;;3.20;;
17207;SDS011;8720;48.488;9.202;2023-05-19T12:19:38;6.40;;;3.60;;
17207;SDS011;8720;48.488;9.202;2023-05-19T12:22:10;5.80;;;3.60;;
17207;SDS011;8720;48.488;9.202;2023-05-19T12:24:38;4.10;;;3.33;;
17207;SDS011;8720;48.488;9.202;2023-05-19T12:27:10;4.90;;;3.43;;
17207;SDS011;8720;48.488;9.202;2023-05-19T12:29:42;5.10;;;3.40;;
17207;SDS011;8720;48.488;9.202;2023-05-19T12:32:15;4.87;;;3.37;;
17207;SDS011;8720;48.488;9.202;2023-05-19T12:34:43;4.63;;;3.77;;
17207;SDS011;8720;48.488;9.202;2023-05-19T12:37:12;4.63;;;3.77;;
17207;SDS011;8720;48.488;9.202;2023-05-19T12:39:40;6.80;;;3.80;;
17207;SDS011;8720;48.488;9.202;2023-05-19T12:42:08;3.47;;;3.10;;
17207;SDS011;8720;48.488;9.202;2023-05-19T12:44:37;7.57;;;3.47;;
17207;SDS011;8720;48.488;9.202;2023-05-19T12:47:11;7.73;;;3.37;;
17207;SDS011;8720;48.488;9.202;2023-05-19T12:49:52;3.87;;;3.40;;
17207;SDS011;8720;48.488;9.202;2023-05-19T12:52:22;4.40;;;3.43;;
17207;SDS011;8720;48.488;9.202;2023-05-19T12:54:49;4.30;;;3.90;;
17207;SDS011;8720;48.488;9.202;2023-05-19T12:57:24;4.97;;;4.00;;
17207;SDS011;8720;48.488;9.202;2023-05-19T12:59:51;5.60;;;3.80;;
17207;SDS011;8720;48.488;9.202;2023-05-19T13:02:19;6.03;;;4.13;;
17207;SDS011;8720;48.488;9.202;2023-05-19T13:04:46;5.87;;;4.97;;
17207;SDS011;8720;48.488;9.202;2023-05-19T13:07:13;6.03;;;4.70;;
17207;SDS011;8720;48.488;9.202;2023-05-19T13:09:42;4.80;;;4.33;;
17207;SDS011;8720;48.488;9.202;2023-05-19T13:12:10;4.33;;;3.93;;
17207;SDS011;8720;48.488;9.202;2023-05-19T13:14:37;7.00;;;4.67;;
17207;SDS011;8720;48.488;9.202;2023-05-19T13:17:06;7.60;;;4.37;;
17207;SDS011;8720;48.488;9.202;2023-05-19T13:19:33;4.40;;;3.77;;
17207;SDS011;8720;48.488;9.202;2023-05-19T13:22:00;6.97;;;4.03;;
17207;SDS011;8720;48.488;9.202;2023-05-19T13:24:27;8.70;;;3.63;;
17207;SDS011;8720;48.488;9.202;2023-05-19T13:26:56;5.57;;;4.57;;
17207;SDS011;8720;48.488;9.202;2023-05-19T13:29:23;4.47;;;4.07;;
17207;SDS011;8720;48.488;9.202;2023-05-19T13:31:55;7.40;;;3.97;;
17207;SDS011;8720;48.488;9.202;2023-05-19T13:34:22;6.90;;;4.33;;
17207;SDS011;8720;48.488;9.202;2023-05-19T13:36:50;4.40;;;4.00;;
17207;SDS011;8720;48.488;9.202;2023-05-19T13:39:17;9.97;;;4.60;;
17207;SDS011;8720;48.488;9.202;2023-05-19T13:41:44;4.60;;;3.73;;
17207;SDS011;8720;48.488;9.202;2023-05-19T13:44:13;4.90;;;4.00;;
17207;SDS011;8720;48.488;9.202;2023-05-19T13:46:40;6.03;;;4.60;;
17207;SDS011;8720;48.488;9.202;2023-05-19T13:49:08;6.30;;;4.00;;
17207;SDS011;8720;48.488;9.202;2023-05-19T13:51:35;7.10;;;4.40;;
17207;SDS011;8720;48.488;9.202;2023-05-19T13:54:02;7.27;;;4.83;;
17207;SDS011;8720;48.488;9.202;2023-05-19T13:56:30;4.60;;;4.10;;
17207;SDS011;8720;48.488;9.202;2023-05-19T13:58:57;4.63;;;4.23;;
17207;SDS011;8720;48.488;9.202;2023-05-19T14:01:26;5.50;;;4.60;;
17207;SDS011;8720;48.488;9.202;2023-05-19T14:03:53;5.00;;;4.27;;
17207;SDS011;8720;48.488;9.202;2023-05-19T14:06:20;5.27;;;4.43;;
17207;SDS011;8720;48.488;9.202;2023-05-19T14:08:48;8.77;;;4.40;;
17207;SDS011;8720;48.488;9.202;2023-05-19T14:11:18;5.20;;;4.67;;
17207;SDS011;8720;48.488;9.202;2023-05-19T14:13:46;4.47;;;4.00;;
17207;SDS011;8720;48.488;9.202;2023-05-19T14:16:14;4.27;;;3.70;;
17207;SDS011;8720;48.488;9.202;2023-05-19T14:18:43;6.07;;;3.70;;
17207;SDS011;8720;48.488;9.202;2023-05-19T14:21:11;6.03;;;4.20;;
17207;SDS011;8720;48.488;9.202;2023-05-19T14:23:38;4.73;;;4.13;;
17207;SDS011;8720;48.488;9.202;2023-05-19T14:26:05;5.37;;;4.30;;
17207;SDS011;8720;48.488;9.202;2023-05-19T14:28:33;4.90;;;3.73;;
17207;SDS011;8720;48.488;9.202;2023-05-19T14:31:00;4.63;;;3.63;;
17207;SDS011;8720;48.488;9.202;2023-05-19T14:33:27;9.83;;;7.50;;
17207;SDS011;8720;48.488;9.202;2023-05-19T14:35:56;7.33;;;5.50;;
17207;SDS011;8720;48.488;9.202;2023-05-19T14:38:24;5.50;;;4.40;;
17207;SDS011;8720;48.488;9.202;2023-05-19T14:40:51;13.20;;;7.70;;
17207;SDS011;8720;48.488;9.202;2023-05-19T14:43:19;10.53;;;8.03;;
17207;SDS011;8720;48.488;9.202;2023-05-19T14:45:46;5.57;;;4.97;;
17207;SDS011;8720;48.488;9.202;2023-05-19T14:48:14;7.70;;;5.50;;
17207;SDS011;8720;48.488;9.202;2023-05-19T14:50:42;6.70;;;6.07;;
17207;SDS011;8720;48.488;9.202;2023-05-19T14:53:11;8.27;;;5.10;;
17207;SDS011;8720;48.488;9.202;2023-05-19T14:55:38;7.57;;;6.37;;
17207;SDS011;8720;48.488;9.202;2023-05-19T14:58:05;7.83;;;7.03;;
17207;SDS011;8720;48.488;9.202;2023-05-19T15:00:33;5.30;;;4.80;;
17207;SDS011;8720;48.488;9.202;2023-05-19T15:03:00;9.10;;;4.10;;
17207;SDS011;8720;48.488;9.202;2023-05-19T15:05:27;6.77;;;4.47;;
17207;SDS011;8720;48.488;9.202;2023-05-19T15:07:55;8.40;;;4.57;;
17207;SDS011;8720;48.488;9.202;2023-05-19T15:10:23;5.60;;;3.67;;
17207;SDS011;8720;48.488;9.202;2023-05-19T15:12:50;6.30;;;4.23;;
17207;SDS011;8720;48.488;9.202;2023-05-19T15:15:18;6.10;;;4.50;;
17207;SDS011;8720;48.488;9.202;2023-05-19T15:17:45;6.20;;;4.47;;
17207;SDS011;8720;48.488;9.202;2023-05-19T15:20:12;5.50;;;4.40;;
17207;SDS011;8720;48.488;9.202;2023-05-19T15:22:40;7.40;;;6.70;;
17207;SDS011;8720;48.488;9.202;2023-05-19T15:25:07;5.43;;;4.47;;